createdAt,value
2018-07-02T00:00:55.647Z,4.60
2018-07-02T00:03:21.995Z,4.70
2018-07-02T00:05:48.387Z,4.30
2018-07-02T00:08:14.744Z,4.40
2018-07-02T00:10:41.085Z,4.70
2018-07-02T00:13:07.495Z,4.53
2018-07-02T00:15:33.850Z,4.60
2018-07-02T00:18:00.199Z,4.23
2018-07-02T00:20:26.580Z,4.50
2018-07-02T00:22:52.990Z,4.40
2018-07-02T00:25:19.378Z,4.30
2018-07-02T00:27:45.712Z,4.27
2018-07-02T00:30:12.072Z,4.40
2018-07-02T00:32:38.394Z,4.63
2018-07-02T00:35:04.769Z,4.50
2018-07-02T00:37:31.117Z,4.70
2018-07-02T00:39:57.478Z,4.20
2018-07-02T00:42:23.875Z,4.03
2018-07-02T00:44:50.212Z,4.03
2018-07-02T00:47:16.556Z,3.93
2018-07-02T00:49:42.942Z,4.47
2018-07-02T00:52:09.304Z,4.13
2018-07-02T00:54:35.652Z,4.33
2018-07-02T00:57:02.055Z,4.50
2018-07-02T00:59:28.467Z,4.50
2018-07-02T01:01:54.826Z,4.30
2018-07-02T01:04:21.167Z,3.70
2018-07-02T01:06:47.498Z,3.87
2018-07-02T01:09:13.839Z,4.20
2018-07-02T01:11:40.218Z,3.73
2018-07-02T01:14:06.549Z,3.60
2018-07-02T01:16:32.886Z,3.77
2018-07-02T01:18:59.220Z,4.00
2018-07-02T01:21:25.558Z,3.73
2018-07-02T01:23:51.894Z,3.47
2018-07-02T01:26:18.240Z,3.63
2018-07-02T01:28:44.586Z,3.30
2018-07-02T01:31:10.937Z,3.47
2018-07-02T01:33:37.300Z,3.47
2018-07-02T01:36:03.665Z,3.13
2018-07-02T01:38:30.020Z,3.50
2018-07-02T01:40:56.364Z,3.40
2018-07-02T01:43:22.724Z,3.50
2018-07-02T01:45:57.612Z,2.97
2018-07-02T01:48:24.565Z,3.33
2018-07-02T01:50:50.918Z,3.00
2018-07-02T01:53:17.312Z,3.03
2018-07-02T01:55:43.696Z,3.10
2018-07-02T01:58:10.055Z,3.30
2018-07-02T02:00:36.399Z,3.37
2018-07-02T02:03:02.799Z,3.00
2018-07-02T02:05:29.161Z,3.00
2018-07-02T02:07:55.540Z,3.23
2018-07-02T02:10:21.933Z,3.00
2018-07-02T02:12:48.929Z,2.97
2018-07-02T02:15:15.277Z,3.10
2018-07-02T02:17:41.669Z,3.07
2018-07-02T02:20:08.006Z,3.00
2018-07-02T02:22:34.350Z,2.80
2018-07-02T02:25:00.690Z,3.13
2018-07-02T02:27:27.108Z,3.10
2018-07-02T02:29:53.510Z,2.70
2018-07-02T02:32:19.854Z,2.90
2018-07-02T02:34:46.247Z,2.90
2018-07-02T02:37:12.632Z,2.70
2018-07-02T02:39:38.986Z,3.13
2018-07-02T02:42:05.384Z,3.10
2018-07-02T02:44:31.722Z,2.73
2018-07-02T02:46:58.092Z,2.57
2018-07-02T02:49:24.441Z,2.83
2018-07-02T02:51:50.798Z,2.63
2018-07-02T02:54:17.198Z,2.77
2018-07-02T02:56:43.595Z,2.70
2018-07-02T02:59:10.040Z,2.70
2018-07-02T03:01:36.414Z,2.90
2018-07-02T03:04:02.795Z,3.00
2018-07-02T03:06:29.170Z,2.70
2018-07-02T03:08:55.535Z,2.77
2018-07-02T03:11:21.906Z,3.00
2018-07-02T03:13:48.355Z,2.73
2018-07-02T03:16:14.786Z,3.30
2018-07-02T03:18:41.181Z,2.87
2018-07-02T03:21:07.577Z,2.43
2018-07-02T03:23:33.935Z,2.50
2018-07-02T03:26:00.281Z,2.70
2018-07-02T03:28:26.618Z,3.20
2018-07-02T03:30:52.953Z,3.07
2018-07-02T03:33:19.343Z,2.63
2018-07-02T03:35:45.697Z,2.40
2018-07-02T03:38:12.052Z,3.00
2018-07-02T03:40:38.424Z,2.70
2018-07-02T03:43:04.775Z,2.70
2018-07-02T03:45:31.107Z,2.97
2018-07-02T03:47:57.491Z,2.87
2018-07-02T03:50:23.884Z,2.90
2018-07-02T03:52:50.238Z,3.27
2018-07-02T03:55:16.567Z,2.80
2018-07-02T03:57:42.928Z,3.17
2018-07-02T04:00:09.290Z,3.10
2018-07-02T04:02:35.636Z,2.73
2018-07-02T04:05:02.027Z,3.23
2018-07-02T04:07:28.364Z,2.83
2018-07-02T04:09:54.700Z,3.67
2018-07-02T04:12:21.095Z,3.23
2018-07-02T04:14:47.431Z,2.80
2018-07-02T04:17:13.766Z,3.20
2018-07-02T04:19:40.115Z,2.70
2018-07-02T04:22:06.455Z,3.00
2018-07-02T04:24:32.894Z,3.33
2018-07-02T04:26:59.271Z,3.10
2018-07-02T04:29:25.636Z,3.10
2018-07-02T04:31:51.986Z,3.17
2018-07-02T04:34:18.538Z,2.60
2018-07-02T04:36:44.852Z,3.47
2018-07-02T04:39:11.257Z,2.87
2018-07-02T04:41:37.616Z,3.40
2018-07-02T04:44:04.023Z,3.00
2018-07-02T04:46:30.388Z,2.90
2018-07-02T04:48:56.814Z,3.20
2018-07-02T04:51:23.194Z,2.90
2018-07-02T04:53:49.524Z,2.67
2018-07-02T04:56:15.876Z,3.20
2018-07-02T04:58:42.250Z,3.40
2018-07-02T05:01:08.595Z,3.33
2018-07-02T05:03:34.907Z,2.83
2018-07-02T05:06:01.239Z,2.80
2018-07-02T05:08:27.592Z,3.13
2018-07-02T05:10:53.936Z,3.13
2018-07-02T05:13:20.311Z,3.30
2018-07-02T05:15:46.655Z,2.87
2018-07-02T05:18:12.976Z,3.43
2018-07-02T05:20:39.386Z,2.87
2018-07-02T05:23:05.723Z,3.00
2018-07-02T05:25:32.088Z,3.43
2018-07-02T05:27:58.417Z,3.20
2018-07-02T05:30:25.121Z,3.57
2018-07-02T05:32:53.001Z,3.60
2018-07-02T05:35:21.145Z,3.70
2018-07-02T05:37:47.805Z,3.20
2018-07-02T05:42:54.192Z,3.23
2018-07-02T05:45:20.680Z,3.27
2018-07-02T05:47:48.392Z,3.33
2018-07-02T05:50:18.763Z,3.87
2018-07-02T05:52:45.848Z,3.53
2018-07-02T05:55:16.305Z,3.27
2018-07-02T06:02:54.479Z,3.13
2018-07-02T06:05:21.174Z,3.37
2018-07-02T06:07:48.588Z,3.83
2018-07-02T06:10:25.420Z,3.53
2018-07-02T06:12:51.755Z,3.80
2018-07-02T06:15:18.165Z,3.20
2018-07-02T06:17:45.056Z,4.37
2018-07-02T06:20:12.898Z,3.27
2018-07-02T06:25:11.545Z,3.90
2018-07-02T06:27:38.184Z,3.67
2018-07-02T06:30:04.997Z,3.93
2018-07-02T06:32:32.480Z,3.90
2018-07-02T06:34:59.795Z,3.40
2018-07-02T06:37:26.835Z,4.27
2018-07-02T06:39:53.976Z,4.00
2018-07-02T06:42:21.018Z,4.03
2018-07-02T06:44:47.770Z,3.80
2018-07-02T06:47:14.931Z,3.97
2018-07-02T07:02:19.391Z,4.30
2018-07-02T07:04:46.004Z,4.40
2018-07-02T07:22:22.735Z,3.97
2018-07-02T07:34:28.372Z,4.20
2018-07-02T07:36:54.821Z,4.00
2018-07-02T07:39:21.607Z,4.20
2018-07-02T07:41:48.556Z,4.13
2018-07-02T07:44:15.147Z,4.23
2018-07-02T07:46:41.927Z,3.90
2018-07-02T07:49:08.607Z,4.53
2018-07-02T07:51:35.224Z,3.70
2018-07-02T07:54:01.780Z,4.70
2018-07-02T07:56:28.547Z,3.93
2018-07-02T07:58:55.412Z,4.30
2018-07-02T08:01:22.088Z,3.87
2018-07-02T08:03:48.804Z,4.00
2018-07-02T08:06:15.531Z,4.00
2018-07-02T08:08:42.316Z,5.20
2018-07-02T08:11:09.042Z,4.00
2018-07-02T08:13:36.885Z,4.57
2018-07-02T08:16:03.580Z,4.20
2018-07-02T08:18:30.254Z,4.40
2018-07-02T08:21:03.995Z,3.90
2018-07-02T08:23:30.824Z,4.33
2018-07-02T08:25:57.842Z,3.97
2018-07-02T08:28:24.770Z,4.50
2018-07-02T08:30:52.316Z,4.53
2018-07-02T08:33:19.265Z,4.97
2018-07-02T08:35:46.154Z,4.17
2018-07-02T08:38:13.103Z,4.20
2018-07-02T08:40:39.682Z,4.43
2018-07-02T08:43:06.434Z,4.20
2018-07-02T08:48:04.414Z,4.53
2018-07-02T08:50:35.187Z,4.90
2018-07-02T08:53:02.123Z,4.60
2018-07-02T08:55:28.826Z,4.80
2018-07-02T08:57:55.469Z,4.43
2018-07-02T09:00:22.243Z,4.43
2018-07-02T09:02:49.072Z,4.47
2018-07-02T09:10:18.771Z,4.67
2018-07-02T09:12:45.744Z,4.60
2018-07-02T09:15:12.678Z,4.43
2018-07-02T09:17:39.603Z,4.60
2018-07-02T09:20:06.241Z,4.73
2018-07-02T09:22:32.767Z,4.60
2018-07-02T09:24:59.390Z,4.97
2018-07-02T09:27:26.169Z,4.40
2018-07-02T09:29:53.222Z,4.50
2018-07-02T09:32:20.148Z,4.97
2018-07-02T09:34:47.045Z,5.70
2018-07-02T09:37:14.003Z,4.83
2018-07-02T09:39:40.648Z,4.87
2018-07-02T09:42:07.176Z,4.67
2018-07-02T09:44:34.070Z,4.80
2018-07-02T09:47:00.568Z,5.83
2018-07-02T09:49:27.161Z,4.87
2018-07-02T09:51:54.169Z,5.07
2018-07-02T09:54:20.815Z,5.20
2018-07-02T09:56:47.495Z,5.00
2018-07-02T09:59:14.387Z,5.17
2018-07-02T10:01:41.189Z,4.70
2018-07-02T10:04:07.882Z,5.33
2018-07-02T10:06:34.531Z,5.17
2018-07-02T10:09:01.193Z,5.00
2018-07-02T10:11:27.576Z,5.30
2018-07-02T10:13:54.261Z,5.40
2018-07-02T10:16:20.914Z,4.90
2018-07-02T10:18:47.375Z,5.23
2018-07-02T10:21:13.754Z,5.67
2018-07-02T10:23:40.470Z,5.50
2018-07-02T10:26:06.937Z,4.93
2018-07-02T10:28:33.462Z,5.07
2018-07-02T10:30:59.967Z,5.27
2018-07-02T10:33:26.399Z,5.60
2018-07-02T10:35:52.854Z,4.73
2018-07-02T10:38:19.526Z,5.60
2018-07-02T10:40:46.087Z,5.40
2018-07-02T10:43:12.851Z,5.40
2018-07-02T10:45:40.590Z,5.13
2018-07-02T10:48:07.441Z,5.87
2018-07-02T10:50:36.762Z,4.80
2018-07-02T10:53:03.343Z,5.50
2018-07-02T10:55:30.030Z,5.63
2018-07-02T10:57:56.539Z,4.70
2018-07-02T11:00:23.294Z,5.33
2018-07-02T11:02:49.795Z,5.13
2018-07-02T11:05:16.530Z,5.30
2018-07-02T11:07:43.326Z,5.50
2018-07-02T11:10:09.772Z,5.00
2018-07-02T11:12:36.248Z,4.70
2018-07-02T11:15:03.879Z,5.23
2018-07-02T11:17:30.382Z,6.40
2018-07-02T11:19:56.784Z,4.73
2018-07-02T11:22:23.272Z,5.37
2018-07-02T11:24:49.738Z,5.60
2018-07-02T11:27:16.161Z,5.20
2018-07-02T11:29:42.700Z,5.70
2018-07-02T11:32:09.257Z,5.20
2018-07-02T11:34:35.872Z,6.00
2018-07-02T11:37:02.514Z,4.90
2018-07-02T11:39:29.256Z,5.43
2018-07-02T11:41:55.861Z,5.93
2018-07-02T11:44:22.731Z,5.63
2018-07-02T11:46:49.449Z,5.67
2018-07-02T11:49:15.957Z,5.37
2018-07-02T11:51:42.750Z,5.50
2018-07-02T11:54:09.511Z,5.77
2018-07-02T11:56:36.095Z,5.53
2018-07-02T11:59:02.780Z,5.50
2018-07-02T12:01:29.683Z,5.47
2018-07-02T12:03:56.452Z,6.63
2018-07-02T12:06:22.939Z,6.67
2018-07-02T12:08:49.621Z,5.43
2018-07-02T12:11:16.137Z,5.47
2018-07-02T12:13:42.901Z,5.33
2018-07-02T12:16:09.448Z,5.70
2018-07-02T12:18:35.825Z,5.73
2018-07-02T12:21:02.506Z,5.90
2018-07-02T12:23:29.037Z,6.37
2018-07-02T12:25:55.446Z,6.00
2018-07-02T12:28:21.953Z,5.73
2018-07-02T12:30:52.349Z,5.40
2018-07-02T12:33:18.878Z,6.40
2018-07-02T12:35:45.472Z,5.30
2018-07-02T12:38:12.304Z,5.43
2018-07-02T12:40:38.860Z,5.83
2018-07-02T12:43:05.335Z,6.17
2018-07-02T12:45:31.998Z,5.60
2018-07-02T12:47:58.784Z,6.10
2018-07-02T12:50:25.247Z,6.40
2018-07-02T12:52:51.872Z,6.10
2018-07-02T12:55:18.226Z,5.70
2018-07-02T12:57:44.579Z,7.00
2018-07-02T13:00:10.939Z,5.20
2018-07-02T13:02:37.693Z,6.60
2018-07-02T13:05:04.140Z,6.40
2018-07-02T13:07:30.795Z,5.30
2018-07-02T13:09:57.182Z,5.80
2018-07-02T13:12:23.553Z,6.40
2018-07-02T13:14:49.918Z,5.83
2018-07-02T13:17:16.331Z,6.13
2018-07-02T13:19:42.797Z,5.40
2018-07-02T13:22:09.161Z,5.70
2018-07-02T13:24:35.757Z,6.10
2018-07-02T13:27:02.201Z,5.60
2018-07-02T13:29:28.846Z,6.00
2018-07-02T13:31:55.265Z,6.30
2018-07-02T13:34:21.650Z,5.80
2018-07-02T13:36:49.030Z,6.70
2018-07-02T13:39:17.251Z,5.80
2018-07-02T13:41:43.916Z,6.00
2018-07-02T13:44:10.443Z,6.03
2018-07-02T13:46:36.779Z,6.20
2018-07-02T13:49:03.441Z,6.80
2018-07-02T13:51:29.809Z,5.37
2018-07-02T13:53:56.373Z,5.47
2018-07-02T13:56:23.079Z,5.93
2018-07-02T13:58:49.522Z,6.00
2018-07-02T14:01:15.899Z,6.30
2018-07-02T14:03:42.628Z,6.17
2018-07-02T14:06:09.373Z,6.00
2018-07-02T14:08:35.723Z,6.20
2018-07-02T14:11:02.437Z,6.33
2018-07-02T14:13:28.844Z,6.50
2018-07-02T14:15:55.295Z,6.33
2018-07-02T14:18:21.668Z,5.83
2018-07-02T14:20:48.202Z,5.20
2018-07-02T14:23:14.834Z,6.60
2018-07-02T14:25:41.282Z,6.63
2018-07-02T14:28:07.694Z,6.13
2018-07-02T14:30:34.277Z,5.83
2018-07-02T14:33:00.620Z,6.27
2018-07-02T14:35:27.090Z,5.90
2018-07-02T14:37:53.759Z,6.10
2018-07-02T14:40:20.647Z,5.83
2018-07-02T14:42:47.089Z,6.50
2018-07-02T14:45:14.199Z,6.07
2018-07-02T14:47:40.644Z,6.20
2018-07-02T14:50:07.247Z,6.10
2018-07-02T14:52:33.643Z,6.07
2018-07-02T14:55:00.044Z,6.03
2018-07-02T14:57:26.521Z,5.80
2018-07-02T14:59:52.911Z,5.67
2018-07-02T15:02:19.348Z,5.70
2018-07-02T15:04:45.707Z,6.23
2018-07-02T15:07:12.150Z,6.17
2018-07-02T15:09:38.698Z,5.83
2018-07-02T15:12:05.135Z,6.03
2018-07-02T15:14:31.606Z,6.23
2018-07-02T15:16:58.137Z,6.37
2018-07-02T15:19:24.690Z,6.40
2018-07-02T15:21:51.173Z,6.30
2018-07-02T15:24:17.868Z,6.40
2018-07-02T15:26:44.598Z,6.20
2018-07-02T15:29:11.297Z,5.60
2018-07-02T15:31:38.579Z,6.50
2018-07-02T15:34:05.106Z,6.67
2018-07-02T15:36:31.478Z,5.80
2018-07-02T15:38:57.891Z,6.60
2018-07-02T15:41:24.445Z,6.00
2018-07-02T15:43:50.845Z,6.13
2018-07-02T15:46:17.234Z,6.30
2018-07-02T15:48:43.608Z,6.07
2018-07-02T15:51:10.149Z,5.80
2018-07-02T15:53:36.786Z,5.93
2018-07-02T15:56:03.152Z,6.37
2018-07-02T15:58:29.547Z,6.13
2018-07-02T16:00:56.098Z,5.97
2018-07-02T16:03:22.646Z,5.90
2018-07-02T16:05:49.065Z,5.87
2018-07-02T16:08:15.492Z,5.87
2018-07-02T16:10:41.873Z,5.93
2018-07-02T16:13:08.362Z,5.83
2018-07-02T16:15:34.831Z,5.80
2018-07-02T16:18:01.235Z,6.90
2018-07-02T16:20:27.915Z,5.90
2018-07-02T16:22:54.532Z,5.93
2018-07-02T16:25:20.889Z,5.63
2018-07-02T16:27:47.531Z,5.70
2018-07-02T16:30:13.931Z,5.30
2018-07-02T16:32:40.308Z,5.80
2018-07-02T16:35:06.673Z,5.67
2018-07-02T16:37:32.999Z,5.87
2018-07-02T16:39:59.544Z,5.70
2018-07-02T16:42:26.130Z,5.90
2018-07-02T16:44:52.825Z,5.70
2018-07-02T16:47:19.224Z,5.37
2018-07-02T16:49:45.593Z,5.80
2018-07-02T16:52:11.943Z,5.57
2018-07-02T16:54:38.425Z,5.80
2018-07-02T16:57:04.768Z,5.60
2018-07-02T16:59:31.292Z,5.63
2018-07-02T17:01:57.737Z,5.90
2018-07-02T17:04:24.138Z,5.83
2018-07-02T17:06:50.660Z,6.67
2018-07-02T17:09:16.990Z,6.10
2018-07-02T17:11:43.911Z,5.80
2018-07-02T17:14:10.295Z,6.07
2018-07-02T17:16:36.786Z,6.13
2018-07-02T17:19:03.218Z,6.57
2018-07-02T17:21:29.678Z,6.00
2018-07-02T17:23:57.875Z,5.77
2018-07-02T17:26:24.299Z,5.90
2018-07-02T17:28:50.690Z,5.93
2018-07-02T17:31:17.062Z,6.90
2018-07-02T17:33:43.468Z,5.70
2018-07-02T17:36:09.860Z,6.03
2018-07-02T17:38:36.298Z,5.90
2018-07-02T17:41:02.643Z,7.07
2018-07-02T17:43:29.163Z,6.43
2018-07-02T17:45:55.802Z,6.07
2018-07-02T17:48:22.179Z,6.23
2018-07-02T17:50:48.664Z,6.10
2018-07-02T17:53:15.085Z,6.90
2018-07-02T17:55:41.451Z,6.30
2018-07-02T17:58:08.246Z,6.60
2018-07-02T18:00:34.592Z,6.47
2018-07-02T18:03:01.082Z,6.30
2018-07-02T18:05:27.506Z,6.10
2018-07-02T18:07:53.864Z,6.00
2018-07-02T18:10:20.398Z,6.00
2018-07-02T18:12:46.860Z,5.87
2018-07-02T18:15:13.214Z,7.07
2018-07-02T18:17:39.749Z,6.50
2018-07-02T18:20:06.118Z,7.50
2018-07-02T18:22:32.701Z,7.03
2018-07-02T18:24:59.250Z,6.30
2018-07-02T18:27:25.958Z,6.93
2018-07-02T18:29:52.444Z,6.53
2018-07-02T18:32:18.843Z,7.40
2018-07-02T18:34:45.403Z,7.07
2018-07-02T18:37:12.039Z,6.87
2018-07-02T18:39:38.426Z,7.40
2018-07-02T18:42:04.962Z,6.87
2018-07-02T18:44:31.412Z,8.03
2018-07-02T18:46:58.059Z,6.53
2018-07-02T18:49:24.554Z,6.63
2018-07-02T18:51:50.999Z,6.90
2018-07-02T18:54:17.594Z,6.87
2018-07-02T18:56:43.929Z,7.20
2018-07-02T18:59:10.294Z,6.53
2018-07-02T19:01:38.796Z,6.57
2018-07-02T19:04:05.129Z,7.10
2018-07-02T19:06:31.868Z,6.73
2018-07-02T19:08:58.296Z,6.90
2018-07-02T19:11:24.926Z,6.47
2018-07-02T19:13:52.058Z,7.20
2018-07-02T19:16:18.564Z,7.10
2018-07-02T19:18:44.968Z,6.27
2018-07-02T19:21:11.317Z,6.90
2018-07-02T19:23:37.695Z,7.50
2018-07-02T19:26:04.132Z,6.60
2018-07-02T19:28:30.796Z,7.10
2018-07-02T19:30:57.201Z,6.83
2018-07-02T19:33:23.601Z,7.20
2018-07-02T19:35:49.960Z,6.80
2018-07-02T19:38:16.344Z,7.00
2018-07-02T19:40:43.071Z,7.10
2018-07-02T19:43:09.643Z,6.33
2018-07-02T19:45:36.069Z,7.50
2018-07-02T19:48:02.587Z,6.20
2018-07-02T19:50:28.988Z,6.97
2018-07-02T19:52:55.820Z,7.30
2018-07-02T19:55:22.385Z,6.90
2018-07-02T19:57:48.703Z,7.63
2018-07-02T20:00:15.308Z,7.73
2018-07-02T20:02:41.850Z,7.23
2018-07-02T20:05:08.383Z,6.03
2018-07-02T20:07:35.080Z,7.40
2018-07-02T20:10:01.610Z,7.20
2018-07-02T20:12:28.304Z,7.53
2018-07-02T20:14:54.697Z,6.50
2018-07-02T20:17:21.024Z,7.33
2018-07-02T20:19:47.743Z,7.27
2018-07-02T20:22:14.514Z,6.50
2018-07-02T20:24:40.893Z,7.30
2018-07-02T20:27:07.628Z,6.80
2018-07-02T20:29:34.021Z,7.23
2018-07-02T20:32:00.799Z,6.90
2018-07-02T20:34:27.538Z,6.93
2018-07-02T20:36:53.934Z,6.90
2018-07-02T20:39:20.465Z,6.90
2018-07-02T20:41:46.805Z,7.67
2018-07-02T20:44:13.634Z,7.40
2018-07-02T20:46:40.542Z,7.37
2018-07-02T20:49:07.119Z,7.40
2018-07-02T20:51:34.231Z,7.50
2018-07-02T20:54:00.714Z,6.90
2018-07-02T20:56:27.149Z,7.07
2018-07-02T20:58:54.467Z,7.00
2018-07-02T21:01:21.356Z,6.33
2018-07-02T21:03:48.363Z,6.73
2018-07-02T21:06:15.051Z,7.00
2018-07-02T21:08:41.606Z,6.87
2018-07-02T21:11:08.081Z,6.40
2018-07-02T21:13:34.484Z,7.20
2018-07-02T21:16:01.126Z,6.50
2018-07-02T21:18:27.734Z,6.70
2018-07-02T21:20:54.344Z,7.13
2018-07-02T21:23:20.726Z,6.40
2018-07-02T21:25:47.207Z,7.10
2018-07-02T21:28:13.919Z,6.93
2018-07-02T21:30:40.258Z,6.40
2018-07-02T21:33:06.666Z,7.10
2018-07-02T21:35:33.242Z,6.53
2018-07-02T21:37:59.585Z,6.57
2018-07-02T21:40:26.236Z,7.27
2018-07-02T21:42:52.870Z,6.83
2018-07-02T21:45:19.265Z,6.63
2018-07-02T21:47:45.582Z,7.27
2018-07-02T21:50:11.953Z,7.07
2018-07-02T21:52:38.448Z,6.80
2018-07-02T21:55:05.004Z,7.50
2018-07-02T21:57:31.467Z,6.80
2018-07-02T21:59:57.803Z,7.63
2018-07-02T22:02:24.180Z,7.70
2018-07-02T22:04:50.666Z,6.50
2018-07-02T22:07:16.993Z,7.37
2018-07-02T22:09:43.349Z,6.40
2018-07-02T22:12:09.667Z,6.77
2018-07-02T22:14:36.143Z,6.77
2018-07-02T22:17:02.546Z,7.17
2018-07-02T22:19:28.875Z,6.80
2018-07-02T22:21:55.273Z,6.70
2018-07-02T22:24:21.604Z,7.20
2018-07-02T22:26:48.012Z,6.93
2018-07-02T22:29:14.399Z,7.57
2018-07-02T22:31:40.887Z,6.50
2018-07-02T22:34:07.288Z,7.60
2018-07-02T22:36:33.652Z,6.97
2018-07-02T22:39:00.024Z,6.60
2018-07-02T22:41:26.510Z,7.00
2018-07-02T22:43:53.020Z,7.43
2018-07-02T22:46:19.376Z,7.90
2018-07-02T22:48:45.740Z,7.10
2018-07-02T22:51:12.076Z,7.33
2018-07-02T22:53:38.623Z,7.10
2018-07-02T22:56:05.034Z,7.47
2018-07-02T22:58:31.451Z,7.57
2018-07-02T23:00:57.942Z,7.47
2018-07-02T23:03:24.461Z,6.70
2018-07-02T23:05:51.192Z,7.10
2018-07-02T23:08:17.627Z,6.70
2018-07-02T23:10:43.993Z,7.50
2018-07-02T23:13:10.587Z,7.50
2018-07-02T23:15:37.017Z,7.57
2018-07-02T23:18:03.409Z,8.00
2018-07-02T23:20:30.063Z,7.60
2018-07-02T23:22:56.455Z,7.43
2018-07-02T23:25:22.851Z,7.03
2018-07-02T23:27:49.239Z,7.27
2018-07-02T23:30:15.814Z,7.30
2018-07-02T23:32:42.191Z,7.53
2018-07-02T23:35:08.570Z,7.70
2018-07-02T23:37:34.892Z,7.37
2018-07-02T23:40:01.257Z,7.20
2018-07-02T23:42:27.594Z,6.70
2018-07-02T23:44:53.930Z,6.73
2018-07-02T23:47:20.281Z,7.00
2018-07-02T23:49:46.690Z,7.07
2018-07-02T23:52:13.061Z,7.60
2018-07-02T23:54:39.419Z,7.40
2018-07-02T23:57:05.801Z,7.10
2018-07-02T23:59:32.168Z,7.33
